Terminal Aerodrome Forecast
Issued by NWS

Home | Current Version | Previous Version | Graphics & Text | Print | Product List | Glossary On
Versions: 1 2 3 4 5 6 7 8 9 10 11 12 13 14 15 16 17
857
FTUS43 KBIS 030520
TAFDIK
TAF
KDIK 030520Z 0306/0406 20008KT P6SM SCT200
     FM032100 24011KT P6SM BKN035
     FM040100 26011KT P6SM BKN025
     FM040300 27012G20KT P6SM BKN015=

USA.gov is the U.S. government's official web portal to all federal, state and local government web resources and services.